sensor_id;sensor_type;location;lat;lon;timestamp;pressure;altitude;pressure_sealevel;temperature;humidity
70916;BME280;58557;50.982;-3.222;2023-04-07T00:01:52;101369.60;;;10.23;42.58
70916;BME280;58557;50.982;-3.222;2023-04-07T00:04:17;101368.57;;;8.86;45.40
70916;BME280;58557;50.982;-3.222;2023-04-07T00:06:43;101369.72;;;9.78;44.69
70916;BME280;58557;50.982;-3.222;2023-04-07T00:09:08;101369.97;;;10.48;43.65
70916;BME280;58557;50.982;-3.222;2023-04-07T00:11:33;101374.36;;;9.62;45.88
70916;BME280;58557;50.982;-3.222;2023-04-07T00:13:58;101374.48;;;8.41;48.33
70916;BME280;58557;50.982;-3.222;2023-04-07T00:16:24;101374.39;;;7.36;50.92
70916;BME280;58557;50.982;-3.222;2023-04-07T00:18:49;101380.06;;;7.19;52.18
70916;BME280;58557;50.982;-3.222;2023-04-07T00:21:14;101382.27;;;6.88;54.27
70916;BME280;58557;50.982;-3.222;2023-04-07T00:23:39;101373.08;;;5.11;58.70
70916;BME280;58557;50.982;-3.222;2023-04-07T00:26:04;101372.06;;;5.03;58.76
70916;BME280;58557;50.982;-3.222;2023-04-07T00:28:29;101376.04;;;7.40;53.69
70916;BME280;58557;50.982;-3.222;2023-04-07T00:30:54;101377.18;;;6.18;55.78
70916;BME280;58557;50.982;-3.222;2023-04-07T00:33:19;101375.45;;;7.68;53.53
70916;BME280;58557;50.982;-3.222;2023-04-07T00:35:45;101373.12;;;6.91;53.62
70916;BME280;58557;50.982;-3.222;2023-04-07T00:38:10;101372.39;;;7.48;52.73
70916;BME280;58557;50.982;-3.222;2023-04-07T00:40:35;101366.22;;;7.83;50.71
70916;BME280;58557;50.982;-3.222;2023-04-07T00:43:00;101370.41;;;9.04;48.86
70916;BME280;58557;50.982;-3.222;2023-04-07T00:45:26;101369.66;;;9.50;46.87
70916;BME280;58557;50.982;-3.222;2023-04-07T00:47:51;101369.72;;;9.94;45.09
70916;BME280;58557;50.982;-3.222;2023-04-07T00:50:18;101368.15;;;10.29;43.51
70916;BME280;58557;50.982;-3.222;2023-04-07T00:52:41;101368.82;;;10.17;43.52
70916;BME280;58557;50.982;-3.222;2023-04-07T00:55:07;101368.47;;;10.60;43.63
70916;BME280;58557;50.982;-3.222;2023-04-07T00:57:32;101369.56;;;8.46;46.70
70916;BME280;58557;50.982;-3.222;2023-04-07T00:59:57;101368.84;;;7.83;49.50
70916;BME280;58557;50.982;-3.222;2023-04-07T01:02:29;101373.15;;;6.66;51.51
70916;BME280;58557;50.982;-3.222;2023-04-07T01:04:52;101370.16;;;8.53;49.05
70916;BME280;58557;50.982;-3.222;2023-04-07T01:07:17;101370.03;;;8.90;48.21
70916;BME280;58557;50.982;-3.222;2023-04-07T01:09:43;101370.39;;;9.10;46.96
70916;BME280;58557;50.982;-3.222;2023-04-07T01:12:10;101366.58;;;10.50;43.83
70916;BME280;58557;50.982;-3.222;2023-04-07T01:14:32;101362.82;;;10.11;44.39
70916;BME280;58557;50.982;-3.222;2023-04-07T01:16:56;101363.84;;;9.78;43.54
70916;BME280;58557;50.982;-3.222;2023-04-07T01:19:30;101361.01;;;8.97;45.73
70916;BME280;58557;50.982;-3.222;2023-04-07T01:21:46;101361.25;;;8.44;47.87
70916;BME280;58557;50.982;-3.222;2023-04-07T01:24:23;101359.11;;;9.63;46.27
70916;BME280;58557;50.982;-3.222;2023-04-07T01:26:36;101360.38;;;8.28;49.36
70916;BME280;58557;50.982;-3.222;2023-04-07T01:31:25;101352.88;;;9.43;45.35
70916;BME280;58557;50.982;-3.222;2023-04-07T01:33:50;101347.24;;;9.02;46.96
70916;BME280;58557;50.982;-3.222;2023-04-07T01:36:15;101341.06;;;9.34;46.60
70916;BME280;58557;50.982;-3.222;2023-04-07T01:38:41;101341.30;;;9.43;46.31
70916;BME280;58557;50.982;-3.222;2023-04-07T01:41:06;101346.44;;;6.93;50.31
70916;BME280;58557;50.982;-3.222;2023-04-07T01:43:31;101352.75;;;6.87;51.53
70916;BME280;58557;50.982;-3.222;2023-04-07T01:45:56;101355.09;;;6.65;52.58
70916;BME280;58557;50.982;-3.222;2023-04-07T01:48:21;101355.76;;;6.02;54.66
70916;BME280;58557;50.982;-3.222;2023-04-07T01:50:46;101356.66;;;5.74;57.41
70916;BME280;58557;50.982;-3.222;2023-04-07T01:53:11;101358.21;;;6.14;56.78
70916;BME280;58557;50.982;-3.222;2023-04-07T01:55:36;101355.98;;;3.24;63.89
70916;BME280;58557;50.982;-3.222;2023-04-07T01:58:04;101353.70;;;5.23;60.61
70916;BME280;58557;50.982;-3.222;2023-04-07T02:00:26;101356.01;;;3.59;63.90
70916;BME280;58557;50.982;-3.222;2023-04-07T02:02:56;101351.47;;;5.92;57.93
70916;BME280;58557;50.982;-3.222;2023-04-07T02:05:19;101351.41;;;6.32;57.17
70916;BME280;58557;50.982;-3.222;2023-04-07T02:07:47;101349.05;;;5.30;57.48
70916;BME280;58557;50.982;-3.222;2023-04-07T02:10:11;101351.60;;;5.77;57.76
70916;BME280;58557;50.982;-3.222;2023-04-07T02:12:32;101357.02;;;6.97;54.93
70916;BME280;58557;50.982;-3.222;2023-04-07T02:14:58;101353.49;;;5.14;57.93
70916;BME280;58557;50.982;-3.222;2023-04-07T02:17:23;101357.18;;;5.36;56.09
70916;BME280;58557;50.982;-3.222;2023-04-07T02:19:48;101359.63;;;6.52;54.53
70916;BME280;58557;50.982;-3.222;2023-04-07T02:22:13;101356.14;;;7.93;50.80
70916;BME280;58557;50.982;-3.222;2023-04-07T02:24:40;101362.80;;;7.87;50.92
70916;BME280;58557;50.982;-3.222;2023-04-07T02:27:03;101361.93;;;7.87;50.12
70916;BME280;58557;50.982;-3.222;2023-04-07T02:29:28;101357.97;;;8.30;47.91
70916;BME280;58557;50.982;-3.222;2023-04-07T02:31:53;101359.20;;;8.39;47.61
70916;BME280;58557;50.982;-3.222;2023-04-07T02:34:18;101362.79;;;7.34;49.59
70916;BME280;58557;50.982;-3.222;2023-04-07T02:36:43;101362.55;;;8.34;48.05
70916;BME280;58557;50.982;-3.222;2023-04-07T02:39:08;101363.73;;;7.80;49.18
70916;BME280;58557;50.982;-3.222;2023-04-07T02:41:33;101363.17;;;7.66;49.45
70916;BME280;58557;50.982;-3.222;2023-04-07T02:43:59;101363.46;;;8.27;48.47
70916;BME280;58557;50.982;-3.222;2023-04-07T02:46:24;101359.63;;;7.43;48.87
70916;BME280;58557;50.982;-3.222;2023-04-07T02:48:49;101361.04;;;8.59;47.53
70916;BME280;58557;50.982;-3.222;2023-04-07T02:51:14;101358.96;;;8.55;47.43
70916;BME280;58557;50.982;-3.222;2023-04-07T02:53:40;101359.95;;;9.12;46.49
70916;BME280;58557;50.982;-3.222;2023-04-07T02:56:05;101360.88;;;9.14;46.48
70916;BME280;58557;50.982;-3.222;2023-04-07T02:58:30;101360.74;;;8.89;47.21
70916;BME280;58557;50.982;-3.222;2023-04-07T03:00:56;101364.35;;;8.91;47.25
70916;BME280;58557;50.982;-3.222;2023-04-07T03:03:21;101364.10;;;6.91;51.68
70916;BME280;58557;50.982;-3.222;2023-04-07T03:05:46;101360.19;;;8.62;49.14
70916;BME280;58557;50.982;-3.222;2023-04-07T03:08:11;101363.13;;;6.01;55.47
70916;BME280;58557;50.982;-3.222;2023-04-07T03:10:36;101361.64;;;5.22;58.87
70916;BME280;58557;50.982;-3.222;2023-04-07T03:13:01;101362.87;;;6.03;56.47
70916;BME280;58557;50.982;-3.222;2023-04-07T03:15:27;101365.99;;;7.29;52.63
70916;BME280;58557;50.982;-3.222;2023-04-07T03:17:52;101370.25;;;6.76;54.28
70916;BME280;58557;50.982;-3.222;2023-04-07T03:20:17;101371.45;;;7.09;54.29
70916;BME280;58557;50.982;-3.222;2023-04-07T03:22:42;101364.71;;;5.95;56.25
70916;BME280;58557;50.982;-3.222;2023-04-07T03:25:08;101370.89;;;6.27;56.10
70916;BME280;58557;50.982;-3.222;2023-04-07T03:27:33;101373.80;;;6.76;55.50
70916;BME280;58557;50.982;-3.222;2023-04-07T03:29:58;101372.54;;;6.53;56.15
70916;BME280;58557;50.982;-3.222;2023-04-07T03:32:23;101377.96;;;7.23;53.50
70916;BME280;58557;50.982;-3.222;2023-04-07T03:34:48;101375.91;;;7.95;52.92
70916;BME280;58557;50.982;-3.222;2023-04-07T03:37:13;101377.64;;;5.83;57.27
70916;BME280;58557;50.982;-3.222;2023-04-07T03:39:38;101379.33;;;5.79;58.04
70916;BME280;58557;50.982;-3.222;2023-04-07T03:42:04;101378.09;;;5.81;58.53
70916;BME280;58557;50.982;-3.222;2023-04-07T03:44:30;101381.31;;;5.92;57.90
70916;BME280;58557;50.982;-3.222;2023-04-07T03:46:55;101383.44;;;4.90;61.07
70916;BME280;58557;50.982;-3.222;2023-04-07T03:49:20;101379.55;;;6.08;58.23
70916;BME280;58557;50.982;-3.222;2023-04-07T03:51:45;101384.87;;;5.83;57.94
70916;BME280;58557;50.982;-3.222;2023-04-07T03:54:10;101387.86;;;5.11;60.36
70916;BME280;58557;50.982;-3.222;2023-04-07T03:56:35;101395.71;;;2.15;70.10
70916;BME280;58557;50.982;-3.222;2023-04-07T03:59:00;101397.76;;;0.74;74.77
70916;BME280;58557;50.982;-3.222;2023-04-07T04:01:26;101399.55;;;1.20;75.65
70916;BME280;58557;50.982;-3.222;2023-04-07T04:03:51;101402.00;;;2.10;72.68
70916;BME280;58557;50.982;-3.222;2023-04-07T04:06:16;101401.49;;;2.81;72.46
70916;BME280;58557;50.982;-3.222;2023-04-07T04:08:41;101397.27;;;4.62;63.57
70916;BME280;58557;50.982;-3.222;2023-04-07T04:11:07;101396.95;;;3.78;64.76
70916;BME280;58557;50.982;-3.222;2023-04-07T04:13:32;101398.81;;;2.66;68.05
70916;BME280;58557;50.982;-3.222;2023-04-07T04:15:57;101392.59;;;2.83;66.35
70916;BME280;58557;50.982;-3.222;2023-04-07T04:18:23;101386.04;;;4.29;62.56
70916;BME280;58557;50.982;-3.222;2023-04-07T04:20:48;101385.37;;;5.57;60.33
70916;BME280;58557;50.982;-3.222;2023-04-07T04:23:13;101387.92;;;6.75;55.28
70916;BME280;58557;50.982;-3.222;2023-04-07T04:25:38;101389.90;;;7.77;52.77
70916;BME280;58557;50.982;-3.222;2023-04-07T04:28:04;101389.11;;;6.70;53.51
70916;BME280;58557;50.982;-3.222;2023-04-07T04:30:29;101393.55;;;6.94;52.81
70916;BME280;58557;50.982;-3.222;2023-04-07T04:32:54;101394.02;;;6.23;54.99
70916;BME280;58557;50.982;-3.222;2023-04-07T04:35:19;101394.87;;;4.81;59.02
70916;BME280;58557;50.982;-3.222;2023-04-07T04:37:44;101401.41;;;1.65;71.42
70916;BME280;58557;50.982;-3.222;2023-04-07T04:40:10;101406.26;;;1.63;73.27
70916;BME280;58557;50.982;-3.222;2023-04-07T04:42:35;101406.86;;;1.01;75.81
70916;BME280;58557;50.982;-3.222;2023-04-07T04:45:00;101409.84;;;0.93;76.08
70916;BME280;58557;50.982;-3.222;2023-04-07T04:47:25;101410.60;;;1.63;75.99
70916;BME280;58557;50.982;-3.222;2023-04-07T04:49:50;101412.55;;;1.71;74.14
70916;BME280;58557;50.982;-3.222;2023-04-07T04:52:15;101412.08;;;1.08;76.44
70916;BME280;58557;50.982;-3.222;2023-04-07T04:54:41;101415.87;;;1.10;75.75
70916;BME280;58557;50.982;-3.222;2023-04-07T04:57:06;101413.86;;;0.67;76.05
70916;BME280;58557;50.982;-3.222;2023-04-07T04:59:32;101413.52;;;0.86;78.60
70916;BME280;58557;50.982;-3.222;2023-04-07T05:01:56;101420.75;;;0.96;78.79
70916;BME280;58557;50.982;-3.222;2023-04-07T05:04:22;101424.98;;;-0.29;84.09
70916;BME280;58557;50.982;-3.222;2023-04-07T05:06:47;101429.53;;;0.50;83.04
70916;BME280;58557;50.982;-3.222;2023-04-07T05:09:12;101431.88;;;0.46;83.89
70916;BME280;58557;50.982;-3.222;2023-04-07T05:11:37;101427.91;;;0.98;80.20
70916;BME280;58557;50.982;-3.222;2023-04-07T05:14:02;101427.63;;;1.03;79.50
70916;BME280;58557;50.982;-3.222;2023-04-07T05:16:28;101424.69;;;1.75;76.50
70916;BME280;58557;50.982;-3.222;2023-04-07T05:18:53;101429.02;;;1.37;77.06
70916;BME280;58557;50.982;-3.222;2023-04-07T05:21:18;101433.39;;;-0.11;83.86
70916;BME280;58557;50.982;-3.222;2023-04-07T05:23:44;101433.67;;;-0.50;87.27
70916;BME280;58557;50.982;-3.222;2023-04-07T05:26:09;101433.33;;;0.13;85.76
70916;BME280;58557;50.982;-3.222;2023-04-07T05:28:35;101434.16;;;0.68;84.09
70916;BME280;58557;50.982;-3.222;2023-04-07T05:31:00;101433.08;;;2.07;78.01
70916;BME280;58557;50.982;-3.222;2023-04-07T05:33:25;101433.73;;;1.70;77.55
70916;BME280;58557;50.982;-3.222;2023-04-07T05:35:50;101430.67;;;2.13;77.16
70916;BME280;58557;50.982;-3.222;2023-04-07T05:38:16;101432.84;;;2.43;74.26
70916;BME280;58557;50.982;-3.222;2023-04-07T05:40:41;101432.94;;;3.27;71.51
70916;BME280;58557;50.982;-3.222;2023-04-07T05:43:06;101424.54;;;4.06;66.58
70916;BME280;58557;50.982;-3.222;2023-04-07T05:45:31;101422.69;;;5.57;64.40
70916;BME280;58557;50.982;-3.222;2023-04-07T05:47:57;101425.36;;;4.24;66.08
70916;BME280;58557;50.982;-3.222;2023-04-07T05:50:22;101427.52;;;2.28;71.56
70916;BME280;58557;50.982;-3.222;2023-04-07T05:52:47;101430.37;;;1.55;75.90
70916;BME280;58557;50.982;-3.222;2023-04-07T05:55:12;101436.71;;;1.72;75.28
70916;BME280;58557;50.982;-3.222;2023-04-07T05:57:37;101439.51;;;2.33;73.11
70916;BME280;58557;50.982;-3.222;2023-04-07T06:00:03;101440.94;;;1.79;77.62
70916;BME280;58557;50.982;-3.222;2023-04-07T06:02:28;101446.90;;;1.38;77.66
70916;BME280;58557;50.982;-3.222;2023-04-07T06:04:53;101442.01;;;1.54;78.58
70916;BME280;58557;50.982;-3.222;2023-04-07T06:07:19;101441.41;;;2.24;77.12
70916;BME280;58557;50.982;-3.222;2023-04-07T06:09:46;101440.85;;;0.92;80.84
70916;BME280;58557;50.982;-3.222;2023-04-07T06:12:09;101446.18;;;1.41;80.35
70916;BME280;58557;50.982;-3.222;2023-04-07T06:14:34;101447.51;;;2.47;76.19
70916;BME280;58557;50.982;-3.222;2023-04-07T06:17:00;101445.85;;;3.67;73.63
70916;BME280;58557;50.982;-3.222;2023-04-07T06:19:24;101440.84;;;2.32;75.81
70916;BME280;58557;50.982;-3.222;2023-04-07T06:21:50;101442.46;;;2.80;75.58
70916;BME280;58557;50.982;-3.222;2023-04-07T06:24:15;101440.35;;;2.23;77.04
70916;BME280;58557;50.982;-3.222;2023-04-07T06:26:40;101442.72;;;2.82;74.74
70916;BME280;58557;50.982;-3.222;2023-04-07T06:29:06;101441.68;;;2.43;76.47
70916;BME280;58557;50.982;-3.222;2023-04-07T06:31:31;101443.41;;;3.42;73.63
70916;BME280;58557;50.982;-3.222;2023-04-07T06:33:56;101442.67;;;4.05;70.47
70916;BME280;58557;50.982;-3.222;2023-04-07T06:36:22;101448.88;;;3.33;72.28
70916;BME280;58557;50.982;-3.222;2023-04-07T06:38:47;101453.29;;;2.56;77.68
70916;BME280;58557;50.982;-3.222;2023-04-07T06:41:13;101456.12;;;2.89;75.81
70916;BME280;58557;50.982;-3.222;2023-04-07T06:43:38;101452.31;;;4.91;70.39
70916;BME280;58557;50.982;-3.222;2023-04-07T06:46:03;101450.92;;;5.95;66.07
70916;BME280;58557;50.982;-3.222;2023-04-07T06:48:28;101451.83;;;5.11;66.45
70916;BME280;58557;50.982;-3.222;2023-04-07T06:50:53;101451.99;;;5.81;63.29
70916;BME280;58557;50.982;-3.222;2023-04-07T06:53:19;101445.95;;;7.14;61.54
70916;BME280;58557;50.982;-3.222;2023-04-07T06:55:44;101444.32;;;6.55;61.95
70916;BME280;58557;50.982;-3.222;2023-04-07T06:58:09;101447.31;;;6.01;63.06
70916;BME280;58557;50.982;-3.222;2023-04-07T07:00:34;101449.50;;;5.80;63.30
70916;BME280;58557;50.982;-3.222;2023-04-07T07:02:59;101451.96;;;6.65;62.10
70916;BME280;58557;50.982;-3.222;2023-04-07T07:05:24;101453.95;;;5.19;65.33
70916;BME280;58557;50.982;-3.222;2023-04-07T07:07:50;101455.36;;;5.38;64.97
70916;BME280;58557;50.982;-3.222;2023-04-07T07:10:15;101460.15;;;4.36;69.05
70916;BME280;58557;50.982;-3.222;2023-04-07T07:12:40;101463.81;;;4.71;70.40
70916;BME280;58557;50.982;-3.222;2023-04-07T07:15:06;101463.58;;;6.17;67.61
70916;BME280;58557;50.982;-3.222;2023-04-07T07:17:31;101467.24;;;6.69;64.54
70916;BME280;58557;50.982;-3.222;2023-04-07T07:19:56;101466.42;;;7.43;61.58
70916;BME280;58557;50.982;-3.222;2023-04-07T07:22:21;101467.49;;;8.54;61.40
70916;BME280;58557;50.982;-3.222;2023-04-07T07:24:46;101470.18;;;7.22;62.09
70916;BME280;58557;50.982;-3.222;2023-04-07T07:27:11;101471.44;;;8.92;57.27
70916;BME280;58557;50.982;-3.222;2023-04-07T07:29:36;101482.01;;;7.55;58.62
70916;BME280;58557;50.982;-3.222;2023-04-07T07:32:01;101482.52;;;7.05;63.29
70916;BME280;58557;50.982;-3.222;2023-04-07T07:34:26;101483.98;;;10.42;53.67
70916;BME280;58557;50.982;-3.222;2023-04-07T07:36:52;101484.62;;;8.94;52.85
70916;BME280;58557;50.982;-3.222;2023-04-07T07:39:18;101481.21;;;10.95;49.48
70916;BME280;58557;50.982;-3.222;2023-04-07T07:41:43;101486.58;;;11.30;49.99
70916;BME280;58557;50.982;-3.222;2023-04-07T07:44:09;101489.68;;;11.69;48.06
70916;BME280;58557;50.982;-3.222;2023-04-07T07:46:34;101489.06;;;13.10;44.17
70916;BME280;58557;50.982;-3.222;2023-04-07T07:49:00;101487.25;;;12.61;46.42
70916;BME280;58557;50.982;-3.222;2023-04-07T07:51:26;101479.13;;;13.14;43.86
70916;BME280;58557;50.982;-3.222;2023-04-07T07:53:51;101480.91;;;14.15;42.29
70916;BME280;58557;50.982;-3.222;2023-04-07T07:56:17;101477.35;;;13.03;42.06
70916;BME280;58557;50.982;-3.222;2023-04-07T07:58:43;101478.68;;;15.68;39.83
70916;BME280;58557;50.982;-3.222;2023-04-07T08:01:09;101483.16;;;15.67;37.71
70916;BME280;58557;50.982;-3.222;2023-04-07T08:03:35;101487.10;;;16.93;37.87
70916;BME280;58557;50.982;-3.222;2023-04-07T08:06:00;101487.11;;;17.50;35.19
70916;BME280;58557;50.982;-3.222;2023-04-07T08:08:26;101489.57;;;17.41;36.21
70916;BME280;58557;50.982;-3.222;2023-04-07T08:10:52;101492.47;;;17.35;35.99
70916;BME280;58557;50.982;-3.222;2023-04-07T08:13:17;101496.63;;;16.34;36.93
70916;BME280;58557;50.982;-3.222;2023-04-07T08:15:43;101499.06;;;17.63;34.89
70916;BME280;58557;50.982;-3.222;2023-04-07T08:18:08;101497.77;;;17.53;35.90
70916;BME280;58557;50.982;-3.222;2023-04-07T08:20:34;101500.02;;;17.62;34.27
70916;BME280;58557;50.982;-3.222;2023-04-07T08:23:00;101507.15;;;17.04;35.79
70916;BME280;58557;50.982;-3.222;2023-04-07T08:25:26;101509.90;;;17.36;38.22
70916;BME280;58557;50.982;-3.222;2023-04-07T08:27:51;101507.78;;;17.63;35.96
70916;BME280;58557;50.982;-3.222;2023-04-07T08:30:17;101507.99;;;16.65;37.60
70916;BME280;58557;50.982;-3.222;2023-04-07T08:32:43;101506.41;;;15.68;37.84
70916;BME280;58557;50.982;-3.222;2023-04-07T08:35:09;101508.15;;;15.33;39.49
70916;BME280;58557;50.982;-3.222;2023-04-07T08:37:34;101508.68;;;15.93;40.18
70916;BME280;58557;50.982;-3.222;2023-04-07T08:40:00;101511.11;;;15.32;39.98
70916;BME280;58557;50.982;-3.222;2023-04-07T08:42:27;101509.30;;;16.44;37.02
70916;BME280;58557;50.982;-3.222;2023-04-07T08:44:52;101511.46;;;17.32;35.28
70916;BME280;58557;50.982;-3.222;2023-04-07T08:47:17;101509.44;;;16.76;36.16
70916;BME280;58557;50.982;-3.222;2023-04-07T08:49:44;101509.93;;;18.20;33.17
70916;BME280;58557;50.982;-3.222;2023-04-07T08:52:11;101505.20;;;15.43;35.09
70916;BME280;58557;50.982;-3.222;2023-04-07T08:54:34;101499.82;;;16.09;35.16
70916;BME280;58557;50.982;-3.222;2023-04-07T08:57:02;101498.50;;;15.09;35.70
70916;BME280;58557;50.982;-3.222;2023-04-07T08:59:26;101501.59;;;15.34;34.68
70916;BME280;58557;50.982;-3.222;2023-04-07T09:01:51;101501.30;;;16.78;34.22
70916;BME280;58557;50.982;-3.222;2023-04-07T09:04:17;101504.48;;;15.96;36.31
70916;BME280;58557;50.982;-3.222;2023-04-07T09:06:43;101506.21;;;16.91;32.80
70916;BME280;58557;50.982;-3.222;2023-04-07T09:09:08;101507.33;;;17.94;32.34
70916;BME280;58557;50.982;-3.222;2023-04-07T09:11:36;101504.16;;;16.61;32.07
70916;BME280;58557;50.982;-3.222;2023-04-07T09:14:00;101505.57;;;17.26;31.26
70916;BME280;58557;50.982;-3.222;2023-04-07T09:16:28;101501.36;;;16.32;32.59
70916;BME280;58557;50.982;-3.222;2023-04-07T09:18:52;101508.41;;;16.83;32.29
70916;BME280;58557;50.982;-3.222;2023-04-07T09:21:17;101502.98;;;16.52;33.14
70916;BME280;58557;50.982;-3.222;2023-04-07T09:23:42;101506.61;;;15.35;34.27
70916;BME280;58557;50.982;-3.222;2023-04-07T09:26:18;101501.14;;;15.45;34.34
70916;BME280;58557;50.982;-3.222;2023-04-07T09:28:41;101499.90;;;16.11;34.34
70916;BME280;58557;50.982;-3.222;2023-04-07T09:30:59;101499.87;;;16.07;34.36
70916;BME280;58557;50.982;-3.222;2023-04-07T09:33:27;101500.02;;;16.12;36.37
70916;BME280;58557;50.982;-3.222;2023-04-07T09:35:51;101496.29;;;16.70;35.18
70916;BME280;58557;50.982;-3.222;2023-04-07T09:38:16;101497.20;;;17.90;32.40
70916;BME280;58557;50.982;-3.222;2023-04-07T09:40:42;101498.86;;;17.28;31.19
70916;BME280;58557;50.982;-3.222;2023-04-07T09:43:18;101495.27;;;15.11;34.65
70916;BME280;58557;50.982;-3.222;2023-04-07T09:45:34;101496.09;;;16.23;34.22
70916;BME280;58557;50.982;-3.222;2023-04-07T09:48:04;101495.54;;;17.06;32.36
70916;BME280;58557;50.982;-3.222;2023-04-07T09:50:31;101494.97;;;16.86;31.62
70916;BME280;58557;50.982;-3.222;2023-04-07T09:52:51;101488.75;;;15.76;32.48
70916;BME280;58557;50.982;-3.222;2023-04-07T09:55:19;101489.10;;;15.93;33.24
70916;BME280;58557;50.982;-3.222;2023-04-07T09:57:43;101485.87;;;16.46;32.19
70916;BME280;58557;50.982;-3.222;2023-04-07T10:00:09;101486.96;;;15.70;33.89
70916;BME280;58557;50.982;-3.222;2023-04-07T10:02:34;101487.67;;;16.07;33.28
70916;BME280;58557;50.982;-3.222;2023-04-07T10:05:00;101486.95;;;16.18;33.53
70916;BME280;58557;50.982;-3.222;2023-04-07T10:07:25;101487.36;;;17.04;33.20
70916;BME280;58557;50.982;-3.222;2023-04-07T10:09:51;101490.57;;;16.92;33.14
70916;BME280;58557;50.982;-3.222;2023-04-07T10:12:17;101480.00;;;18.14;32.11
70916;BME280;58557;50.982;-3.222;2023-04-07T10:14:43;101478.47;;;17.67;30.90
70916;BME280;58557;50.982;-3.222;2023-04-07T10:17:08;101479.67;;;17.69;31.83
70916;BME280;58557;50.982;-3.222;2023-04-07T10:19:35;101482.13;;;17.93;32.61
70916;BME280;58557;50.982;-3.222;2023-04-07T10:22:01;101478.01;;;18.77;30.44
70916;BME280;58557;50.982;-3.222;2023-04-07T10:24:36;101476.53;;;18.34;30.94
70916;BME280;58557;50.982;-3.222;2023-04-07T10:26:54;101475.42;;;17.79;29.13
70916;BME280;58557;50.982;-3.222;2023-04-07T10:29:17;101471.39;;;17.36;30.30
70916;BME280;58557;50.982;-3.222;2023-04-07T10:31:42;101472.37;;;17.15;30.90
70916;BME280;58557;50.982;-3.222;2023-04-07T10:34:08;101469.66;;;16.29;31.28
70916;BME280;58557;50.982;-3.222;2023-04-07T10:36:34;101472.14;;;16.33;32.54
70916;BME280;58557;50.982;-3.222;2023-04-07T10:41:32;101472.28;;;16.58;34.42
70916;BME280;58557;50.982;-3.222;2023-04-07T10:43:51;101469.08;;;17.04;31.43
70916;BME280;58557;50.982;-3.222;2023-04-07T10:46:16;101468.57;;;16.51;31.87
70916;BME280;58557;50.982;-3.222;2023-04-07T10:48:42;101469.06;;;16.54;32.08
70916;BME280;58557;50.982;-3.222;2023-04-07T10:51:13;101465.98;;;16.99;33.05
70916;BME280;58557;50.982;-3.222;2023-04-07T10:53:33;101458.35;;;16.43;31.83
70916;BME280;58557;50.982;-3.222;2023-04-07T10:56:00;101461.06;;;15.26;34.32
70916;BME280;58557;50.982;-3.222;2023-04-07T10:58:25;101462.45;;;15.26;34.49
70916;BME280;58557;50.982;-3.222;2023-04-07T11:03:16;101467.30;;;15.93;34.25
70916;BME280;58557;50.982;-3.222;2023-04-07T11:05:42;101460.74;;;16.43;34.55
70916;BME280;58557;50.982;-3.222;2023-04-07T11:08:08;101462.45;;;16.78;32.54
70916;BME280;58557;50.982;-3.222;2023-04-07T11:10:34;101457.95;;;17.92;32.41
70916;BME280;58557;50.982;-3.222;2023-04-07T11:13:01;101457.34;;;18.00;31.40
70916;BME280;58557;50.982;-3.222;2023-04-07T11:15:25;101457.31;;;18.56;31.44
70916;BME280;58557;50.982;-3.222;2023-04-07T11:18:06;101455.91;;;18.12;30.80
70916;BME280;58557;50.982;-3.222;2023-04-07T11:20:16;101452.83;;;18.22;30.29
70916;BME280;58557;50.982;-3.222;2023-04-07T11:22:41;101448.44;;;16.23;32.85
70916;BME280;58557;50.982;-3.222;2023-04-07T11:25:20;101441.62;;;15.72;35.57
70916;BME280;58557;50.982;-3.222;2023-04-07T11:27:33;101440.86;;;15.93;35.52
70916;BME280;58557;50.982;-3.222;2023-04-07T11:29:59;101440.35;;;16.07;35.89
70916;BME280;58557;50.982;-3.222;2023-04-07T11:32:24;101438.84;;;16.31;34.83
70916;BME280;58557;50.982;-3.222;2023-04-07T11:34:50;101436.82;;;17.58;34.06
70916;BME280;58557;50.982;-3.222;2023-04-07T11:37:19;101441.08;;;16.87;32.85
70916;BME280;58557;50.982;-3.222;2023-04-07T11:39:41;101443.18;;;17.77;34.81
70916;BME280;58557;50.982;-3.222;2023-04-07T11:42:07;101443.31;;;17.79;31.79
70916;BME280;58557;50.982;-3.222;2023-04-07T11:44:33;101448.93;;;18.99;29.83
70916;BME280;58557;50.982;-3.222;2023-04-07T11:46:59;101446.28;;;19.62;28.45
70916;BME280;58557;50.982;-3.222;2023-04-07T11:49:25;101446.13;;;18.60;31.66
70916;BME280;58557;50.982;-3.222;2023-04-07T11:51:59;101444.56;;;18.83;30.59
70916;BME280;58557;50.982;-3.222;2023-04-07T11:54:15;101441.46;;;18.96;30.95
70916;BME280;58557;50.982;-3.222;2023-04-07T11:56:43;101442.07;;;18.99;30.51
70916;BME280;58557;50.982;-3.222;2023-04-07T11:59:06;101433.50;;;17.45;30.99
70916;BME280;58557;50.982;-3.222;2023-04-07T12:01:38;101431.10;;;19.43;29.14
70916;BME280;58557;50.982;-3.222;2023-04-07T12:03:59;101432.04;;;18.94;29.42
70916;BME280;58557;50.982;-3.222;2023-04-07T12:06:27;101433.46;;;19.96;27.82
70916;BME280;58557;50.982;-3.222;2023-04-07T12:08:49;101429.09;;;19.05;28.32
70916;BME280;58557;50.982;-3.222;2023-04-07T12:11:14;101428.51;;;19.43;26.90
70916;BME280;58557;50.982;-3.222;2023-04-07T12:13:40;101426.70;;;19.79;26.67
70916;BME280;58557;50.982;-3.222;2023-04-07T12:16:06;101427.06;;;20.11;26.24
70916;BME280;58557;50.982;-3.222;2023-04-07T12:18:32;101426.74;;;19.02;26.82
70916;BME280;58557;50.982;-3.222;2023-04-07T12:20:57;101431.33;;;18.03;27.07
70916;BME280;58557;50.982;-3.222;2023-04-07T12:23:23;101422.85;;;18.70;27.99
70916;BME280;58557;50.982;-3.222;2023-04-07T12:25:49;101422.88;;;17.37;28.80
70916;BME280;58557;50.982;-3.222;2023-04-07T12:28:14;101418.47;;;17.58;28.75
70916;BME280;58557;50.982;-3.222;2023-04-07T12:30:40;101419.17;;;17.81;29.13
70916;BME280;58557;50.982;-3.222;2023-04-07T12:33:06;101415.50;;;18.12;29.60
70916;BME280;58557;50.982;-3.222;2023-04-07T12:35:31;101415.86;;;18.71;28.83
70916;BME280;58557;50.982;-3.222;2023-04-07T12:37:57;101411.20;;;18.41;27.69
70916;BME280;58557;50.982;-3.222;2023-04-07T12:40:22;101413.10;;;19.43;25.95
70916;BME280;58557;50.982;-3.222;2023-04-07T12:42:48;101410.41;;;19.68;26.04